sensor_id;sensor_type;location;lat;lon;timestamp;P1;durP1;ratioP1;P2;durP2;ratioP2
46875;SDS011;32866;50.160;14.768;2022-08-19T00:00:05;8.25;;;3.15;;
46875;SDS011;32866;50.160;14.768;2022-08-19T00:02:33;6.68;;;2.92;;
46875;SDS011;32866;50.160;14.768;2022-08-19T00:04:59;5.72;;;2.63;;
46875;SDS011;32866;50.160;14.768;2022-08-19T00:07:24;3.17;;;2.72;;
46875;SDS011;32866;50.160;14.768;2022-08-19T00:09:50;3.78;;;2.50;;
46875;SDS011;32866;50.160;14.768;2022-08-19T00:14:40;2.88;;;2.38;;
46875;SDS011;32866;50.160;14.768;2022-08-19T00:17:06;6.22;;;2.40;;
46875;SDS011;32866;50.160;14.768;2022-08-19T00:19:33;4.53;;;2.70;;
46875;SDS011;32866;50.160;14.768;2022-08-19T00:21:59;5.32;;;2.63;;
46875;SDS011;32866;50.160;14.768;2022-08-19T00:26:50;4.38;;;2.38;;
46875;SDS011;32866;50.160;14.768;2022-08-19T00:29:17;5.53;;;2.40;;
46875;SDS011;32866;50.160;14.768;2022-08-19T00:31:44;5.70;;;2.85;;
46875;SDS011;32866;50.160;14.768;2022-08-19T00:34:11;5.88;;;3.05;;
46875;SDS011;32866;50.160;14.768;2022-08-19T00:36:38;6.30;;;3.08;;
46875;SDS011;32866;50.160;14.768;2022-08-19T00:39:04;5.80;;;3.47;;
46875;SDS011;32866;50.160;14.768;2022-08-19T00:41:30;6.93;;;2.85;;
46875;SDS011;32866;50.160;14.768;2022-08-19T00:46:21;5.72;;;2.92;;
46875;SDS011;32866;50.160;14.768;2022-08-19T00:51:12;4.13;;;3.00;;
46875;SDS011;32866;50.160;14.768;2022-08-19T00:53:37;4.13;;;2.97;;
46875;SDS011;32866;50.160;14.768;2022-08-19T00:56:04;3.67;;;2.75;;
46875;SDS011;32866;50.160;14.768;2022-08-19T00:58:32;5.38;;;3.35;;
46875;SDS011;32866;50.160;14.768;2022-08-19T01:01:00;10.60;;;3.30;;
46875;SDS011;32866;50.160;14.768;2022-08-19T01:03:27;5.18;;;3.03;;
46875;SDS011;32866;50.160;14.768;2022-08-19T01:08:18;7.03;;;3.78;;
46875;SDS011;32866;50.160;14.768;2022-08-19T01:10:47;6.32;;;3.10;;
46875;SDS011;32866;50.160;14.768;2022-08-19T01:13:16;5.50;;;2.97;;
46875;SDS011;32866;50.160;14.768;2022-08-19T01:15:45;5.70;;;2.88;;
46875;SDS011;32866;50.160;14.768;2022-08-19T01:18:14;7.43;;;3.33;;
46875;SDS011;32866;50.160;14.768;2022-08-19T01:20:42;6.05;;;3.58;;
46875;SDS011;32866;50.160;14.768;2022-08-19T01:25:50;5.95;;;3.42;;
46875;SDS011;32866;50.160;14.768;2022-08-19T01:28:22;5.15;;;3.17;;
46875;SDS011;32866;50.160;14.768;2022-08-19T01:30:53;5.40;;;3.72;;
46875;SDS011;32866;50.160;14.768;2022-08-19T01:33:19;3.95;;;3.17;;
46875;SDS011;32866;50.160;14.768;2022-08-19T01:38:18;6.05;;;3.95;;
46875;SDS011;32866;50.160;14.768;2022-08-19T01:40:49;6.20;;;3.42;;
46875;SDS011;32866;50.160;14.768;2022-08-19T01:45:40;4.25;;;3.17;;
46875;SDS011;32866;50.160;14.768;2022-08-19T01:48:06;5.32;;;2.80;;
46875;SDS011;32866;50.160;14.768;2022-08-19T01:50:32;4.75;;;3.50;;
46875;SDS011;32866;50.160;14.768;2022-08-19T01:52:59;5.65;;;3.88;;
46875;SDS011;32866;50.160;14.768;2022-08-19T01:55:25;5.22;;;3.38;;
46875;SDS011;32866;50.160;14.768;2022-08-19T02:00:19;5.32;;;2.90;;
46875;SDS011;32866;50.160;14.768;2022-08-19T02:02:47;4.88;;;4.18;;
46875;SDS011;32866;50.160;14.768;2022-08-19T02:07:39;6.32;;;4.55;;
46875;SDS011;32866;50.160;14.768;2022-08-19T02:10:09;9.57;;;3.80;;
46875;SDS011;32866;50.160;14.768;2022-08-19T02:12:38;8.75;;;4.00;;
46875;SDS011;32866;50.160;14.768;2022-08-19T02:17:31;6.28;;;4.22;;
46875;SDS011;32866;50.160;14.768;2022-08-19T02:19:57;7.25;;;4.25;;
46875;SDS011;32866;50.160;14.768;2022-08-19T02:24:50;6.45;;;4.50;;
46875;SDS011;32866;50.160;14.768;2022-08-19T02:29:41;6.05;;;4.13;;
46875;SDS011;32866;50.160;14.768;2022-08-19T02:32:07;7.68;;;4.38;;
46875;SDS011;32866;50.160;14.768;2022-08-19T02:36:58;7.82;;;5.30;;
46875;SDS011;32866;50.160;14.768;2022-08-19T02:41:48;6.57;;;5.55;;
46875;SDS011;32866;50.160;14.768;2022-08-19T02:44:14;6.45;;;5.78;;
46875;SDS011;32866;50.160;14.768;2022-08-19T02:49:06;6.97;;;5.53;;
46875;SDS011;32866;50.160;14.768;2022-08-19T02:51:34;8.30;;;6.93;;
46875;SDS011;32866;50.160;14.768;2022-08-19T02:54:04;9.43;;;6.72;;
46875;SDS011;32866;50.160;14.768;2022-08-19T02:56:31;8.23;;;6.43;;
46875;SDS011;32866;50.160;14.768;2022-08-19T02:58:59;8.68;;;6.47;;
46875;SDS011;32866;50.160;14.768;2022-08-19T03:03:58;7.50;;;6.70;;
46875;SDS011;32866;50.160;14.768;2022-08-19T03:06:25;9.68;;;7.68;;
46875;SDS011;32866;50.160;14.768;2022-08-19T03:08:51;10.63;;;8.68;;
46875;SDS011;32866;50.160;14.768;2022-08-19T03:13:47;9.77;;;8.27;;
46875;SDS011;32866;50.160;14.768;2022-08-19T03:16:14;9.80;;;7.88;;
46875;SDS011;32866;50.160;14.768;2022-08-19T03:21:05;13.45;;;8.95;;
46875;SDS011;32866;50.160;14.768;2022-08-19T03:23:31;11.90;;;8.18;;
46875;SDS011;32866;50.160;14.768;2022-08-19T03:28:21;13.07;;;8.18;;
46875;SDS011;32866;50.160;14.768;2022-08-19T03:30:57;10.82;;;8.18;;
46875;SDS011;32866;50.160;14.768;2022-08-19T03:33:34;13.98;;;9.48;;
46875;SDS011;32866;50.160;14.768;2022-08-19T03:36:04;13.38;;;9.23;;
46875;SDS011;32866;50.160;14.768;2022-08-19T03:38:34;13.60;;;10.20;;
46875;SDS011;32866;50.160;14.768;2022-08-19T03:41:02;14.90;;;9.98;;
46875;SDS011;32866;50.160;14.768;2022-08-19T03:43:33;13.00;;;10.43;;
46875;SDS011;32866;50.160;14.768;2022-08-19T03:46:01;15.60;;;9.88;;
46875;SDS011;32866;50.160;14.768;2022-08-19T03:48:29;10.85;;;9.05;;
46875;SDS011;32866;50.160;14.768;2022-08-19T03:50:55;10.75;;;9.63;;
46875;SDS011;32866;50.160;14.768;2022-08-19T03:53:23;12.30;;;10.88;;
46875;SDS011;32866;50.160;14.768;2022-08-19T03:55:50;12.60;;;10.43;;
46875;SDS011;32866;50.160;14.768;2022-08-19T04:00:42;13.50;;;11.00;;
46875;SDS011;32866;50.160;14.768;2022-08-19T04:05:33;15.10;;;11.23;;
46875;SDS011;32866;50.160;14.768;2022-08-19T04:07:58;15.07;;;12.05;;
46875;SDS011;32866;50.160;14.768;2022-08-19T04:12:49;12.65;;;10.52;;
46875;SDS011;32866;50.160;14.768;2022-08-19T04:15:14;16.88;;;12.10;;
46875;SDS011;32866;50.160;14.768;2022-08-19T04:20:05;14.52;;;10.07;;
46875;SDS011;32866;50.160;14.768;2022-08-19T04:22:31;14.98;;;12.15;;
46875;SDS011;32866;50.160;14.768;2022-08-19T04:24:56;12.98;;;10.88;;
46875;SDS011;32866;50.160;14.768;2022-08-19T04:27:21;14.98;;;11.65;;
46875;SDS011;32866;50.160;14.768;2022-08-19T04:29:47;15.00;;;11.05;;
46875;SDS011;32866;50.160;14.768;2022-08-19T04:34:40;14.60;;;11.25;;
46875;SDS011;32866;50.160;14.768;2022-08-19T04:37:07;14.43;;;9.50;;
46875;SDS011;32866;50.160;14.768;2022-08-19T04:39:42;14.20;;;11.20;;
46875;SDS011;32866;50.160;14.768;2022-08-19T04:42:26;11.50;;;10.07;;
46875;SDS011;32866;50.160;14.768;2022-08-19T04:45:07;15.32;;;11.80;;
46875;SDS011;32866;50.160;14.768;2022-08-19T04:47:38;16.67;;;11.18;;
46875;SDS011;32866;50.160;14.768;2022-08-19T04:50:06;14.65;;;11.68;;
46875;SDS011;32866;50.160;14.768;2022-08-19T04:52:32;16.15;;;12.02;;
46875;SDS011;32866;50.160;14.768;2022-08-19T04:57:23;12.27;;;11.05;;
46875;SDS011;32866;50.160;14.768;2022-08-19T05:02:18;18.05;;;11.68;;
46875;SDS011;32866;50.160;14.768;2022-08-19T05:07:08;16.95;;;12.00;;
46875;SDS011;32866;50.160;14.768;2022-08-19T05:12:00;15.90;;;12.30;;
46875;SDS011;32866;50.160;14.768;2022-08-19T05:14:25;14.93;;;12.60;;
46875;SDS011;32866;50.160;14.768;2022-08-19T05:19:16;16.67;;;11.13;;
46875;SDS011;32866;50.160;14.768;2022-08-19T05:22:00;15.93;;;12.70;;
46875;SDS011;32866;50.160;14.768;2022-08-19T05:24:44;17.02;;;12.98;;
46875;SDS011;32866;50.160;14.768;2022-08-19T05:29:34;16.52;;;12.90;;
46875;SDS011;32866;50.160;14.768;2022-08-19T05:34:26;21.23;;;14.80;;
46875;SDS011;32866;50.160;14.768;2022-08-19T05:39:22;17.35;;;13.68;;
46875;SDS011;32866;50.160;14.768;2022-08-19T05:41:50;18.02;;;13.63;;
46875;SDS011;32866;50.160;14.768;2022-08-19T05:44:22;18.02;;;13.40;;
46875;SDS011;32866;50.160;14.768;2022-08-19T05:46:48;18.77;;;13.90;;
46875;SDS011;32866;50.160;14.768;2022-08-19T05:51:40;19.35;;;14.23;;
46875;SDS011;32866;50.160;14.768;2022-08-19T05:54:06;16.80;;;13.65;;
46875;SDS011;32866;50.160;14.768;2022-08-19T05:56:33;18.10;;;14.25;;
46875;SDS011;32866;50.160;14.768;2022-08-19T05:59:03;18.20;;;13.73;;
46875;SDS011;32866;50.160;14.768;2022-08-19T06:01:34;17.88;;;13.85;;
46875;SDS011;32866;50.160;14.768;2022-08-19T06:04:00;25.38;;;14.95;;
46875;SDS011;32866;50.160;14.768;2022-08-19T06:06:26;19.08;;;14.43;;
46875;SDS011;32866;50.160;14.768;2022-08-19T06:08:51;16.50;;;13.35;;
46875;SDS011;32866;50.160;14.768;2022-08-19T06:11:18;20.65;;;15.45;;
46875;SDS011;32866;50.160;14.768;2022-08-19T06:16:21;19.33;;;14.02;;
46875;SDS011;32866;50.160;14.768;2022-08-19T06:18:51;15.48;;;13.00;;
46875;SDS011;32866;50.160;14.768;2022-08-19T06:21:21;18.10;;;14.35;;
46875;SDS011;32866;50.160;14.768;2022-08-19T06:23:48;19.10;;;14.43;;
46875;SDS011;32866;50.160;14.768;2022-08-19T06:26:15;14.98;;;13.13;;
46875;SDS011;32866;50.160;14.768;2022-08-19T06:28:42;18.90;;;14.27;;
46875;SDS011;32866;50.160;14.768;2022-08-19T06:31:11;17.13;;;14.75;;
46875;SDS011;32866;50.160;14.768;2022-08-19T06:33:41;14.82;;;12.93;;
46875;SDS011;32866;50.160;14.768;2022-08-19T06:36:07;19.80;;;13.77;;
46875;SDS011;32866;50.160;14.768;2022-08-19T06:38:40;17.23;;;12.90;;
46875;SDS011;32866;50.160;14.768;2022-08-19T06:41:05;18.65;;;13.90;;
46875;SDS011;32866;50.160;14.768;2022-08-19T06:43:31;16.13;;;13.32;;
46875;SDS011;32866;50.160;14.768;2022-08-19T06:45:56;18.50;;;13.20;;
46875;SDS011;32866;50.160;14.768;2022-08-19T06:48:23;17.85;;;13.10;;
46875;SDS011;32866;50.160;14.768;2022-08-19T06:50:49;15.77;;;13.35;;
46875;SDS011;32866;50.160;14.768;2022-08-19T06:53:16;14.98;;;12.73;;
46875;SDS011;32866;50.160;14.768;2022-08-19T06:55:44;15.85;;;13.07;;
46875;SDS011;32866;50.160;14.768;2022-08-19T06:58:10;15.65;;;13.07;;
46875;SDS011;32866;50.160;14.768;2022-08-19T07:00:35;19.20;;;13.68;;
46875;SDS011;32866;50.160;14.768;2022-08-19T07:03:01;19.23;;;13.30;;
46875;SDS011;32866;50.160;14.768;2022-08-19T07:05:27;12.45;;;11.18;;
46875;SDS011;32866;50.160;14.768;2022-08-19T07:07:52;15.90;;;12.13;;
46875;SDS011;32866;50.160;14.768;2022-08-19T07:10:18;18.92;;;13.15;;
46875;SDS011;32866;50.160;14.768;2022-08-19T07:12:44;15.40;;;13.13;;
46875;SDS011;32866;50.160;14.768;2022-08-19T07:15:09;13.90;;;11.50;;
46875;SDS011;32866;50.160;14.768;2022-08-19T07:17:36;16.85;;;14.43;;
46875;SDS011;32866;50.160;14.768;2022-08-19T07:20:03;16.70;;;13.50;;
46875;SDS011;32866;50.160;14.768;2022-08-19T07:22:32;15.88;;;13.00;;
46875;SDS011;32866;50.160;14.768;2022-08-19T07:25:00;16.25;;;12.30;;
46875;SDS011;32866;50.160;14.768;2022-08-19T07:27:28;16.88;;;13.40;;
46875;SDS011;32866;50.160;14.768;2022-08-19T07:29:53;14.30;;;12.77;;
46875;SDS011;32866;50.160;14.768;2022-08-19T07:32:19;18.27;;;13.15;;
46875;SDS011;32866;50.160;14.768;2022-08-19T07:34:44;15.30;;;11.07;;
46875;SDS011;32866;50.160;14.768;2022-08-19T07:37:10;18.67;;;12.80;;
46875;SDS011;32866;50.160;14.768;2022-08-19T07:39:36;14.82;;;12.30;;
46875;SDS011;32866;50.160;14.768;2022-08-19T07:42:05;14.35;;;12.85;;
46875;SDS011;32866;50.160;14.768;2022-08-19T07:44:34;16.25;;;13.43;;
46875;SDS011;32866;50.160;14.768;2022-08-19T07:46:59;13.27;;;11.88;;
46875;SDS011;32866;50.160;14.768;2022-08-19T07:49:25;14.05;;;12.35;;
46875;SDS011;32866;50.160;14.768;2022-08-19T07:51:53;13.48;;;12.13;;
46875;SDS011;32866;50.160;14.768;2022-08-19T07:54:24;14.23;;;12.73;;
46875;SDS011;32866;50.160;14.768;2022-08-19T07:56:51;17.40;;;12.32;;
46875;SDS011;32866;50.160;14.768;2022-08-19T07:59:17;13.63;;;12.00;;
46875;SDS011;32866;50.160;14.768;2022-08-19T08:01:44;17.60;;;13.23;;
46875;SDS011;32866;50.160;14.768;2022-08-19T08:04:10;13.63;;;12.15;;
46875;SDS011;32866;50.160;14.768;2022-08-19T08:06:54;14.70;;;11.98;;
46875;SDS011;32866;50.160;14.768;2022-08-19T08:09:39;16.15;;;12.60;;
46875;SDS011;32866;50.160;14.768;2022-08-19T08:12:07;13.85;;;12.38;;
46875;SDS011;32866;50.160;14.768;2022-08-19T08:14:41;17.65;;;12.10;;
46875;SDS011;32866;50.160;14.768;2022-08-19T08:17:12;19.10;;;12.30;;
46875;SDS011;32866;50.160;14.768;2022-08-19T08:19:39;13.73;;;12.10;;
46875;SDS011;32866;50.160;14.768;2022-08-19T08:22:06;14.55;;;10.77;;
46875;SDS011;32866;50.160;14.768;2022-08-19T08:24:34;13.60;;;10.35;;
46875;SDS011;32866;50.160;14.768;2022-08-19T08:27:01;13.57;;;12.05;;
46875;SDS011;32866;50.160;14.768;2022-08-19T08:29:27;13.02;;;10.35;;
46875;SDS011;32866;50.160;14.768;2022-08-19T08:31:54;14.20;;;10.93;;
46875;SDS011;32866;50.160;14.768;2022-08-19T08:34:20;15.07;;;11.25;;
46875;SDS011;32866;50.160;14.768;2022-08-19T08:36:46;12.93;;;11.65;;
46875;SDS011;32866;50.160;14.768;2022-08-19T08:39:13;13.68;;;11.35;;
46875;SDS011;32866;50.160;14.768;2022-08-19T08:44:15;14.77;;;11.65;;
46875;SDS011;32866;50.160;14.768;2022-08-19T08:46:49;15.05;;;11.82;;
46875;SDS011;32866;50.160;14.768;2022-08-19T08:49:34;16.20;;;11.63;;
46875;SDS011;32866;50.160;14.768;2022-08-19T08:52:15;13.23;;;11.85;;
46875;SDS011;32866;50.160;14.768;2022-08-19T08:54:43;12.85;;;11.48;;
46875;SDS011;32866;50.160;14.768;2022-08-19T08:57:19;14.57;;;11.23;;
46875;SDS011;32866;50.160;14.768;2022-08-19T08:59:52;13.48;;;12.07;;
46875;SDS011;32866;50.160;14.768;2022-08-19T09:02:21;12.05;;;10.82;;
46875;SDS011;32866;50.160;14.768;2022-08-19T09:04:47;12.70;;;11.10;;
46875;SDS011;32866;50.160;14.768;2022-08-19T09:07:20;12.70;;;11.40;;
46875;SDS011;32866;50.160;14.768;2022-08-19T09:09:56;12.75;;;11.45;;
46875;SDS011;32866;50.160;14.768;2022-08-19T09:15:34;17.63;;;11.55;;
46875;SDS011;32866;50.160;14.768;2022-08-19T09:18:04;13.10;;;10.98;;
46875;SDS011;32866;50.160;14.768;2022-08-19T09:20:29;13.95;;;11.57;;
46875;SDS011;32866;50.160;14.768;2022-08-19T09:22:56;14.20;;;11.02;;
46875;SDS011;32866;50.160;14.768;2022-08-19T09:25:23;11.93;;;10.68;;
46875;SDS011;32866;50.160;14.768;2022-08-19T09:27:50;12.52;;;11.23;;
46875;SDS011;32866;50.160;14.768;2022-08-19T09:30:19;14.60;;;12.13;;
46875;SDS011;32866;50.160;14.768;2022-08-19T09:32:48;11.43;;;10.20;;
46875;SDS011;32866;50.160;14.768;2022-08-19T09:35:17;11.43;;;10.05;;
46875;SDS011;32866;50.160;14.768;2022-08-19T09:37:43;12.38;;;11.07;;
46875;SDS011;32866;50.160;14.768;2022-08-19T09:40:09;12.93;;;9.88;;
46875;SDS011;32866;50.160;14.768;2022-08-19T09:42:38;13.40;;;11.40;;
46875;SDS011;32866;50.160;14.768;2022-08-19T09:45:03;20.40;;;12.35;;
46875;SDS011;32866;50.160;14.768;2022-08-19T09:47:29;12.48;;;11.18;;
46875;SDS011;32866;50.160;14.768;2022-08-19T09:49:55;12.80;;;10.63;;
46875;SDS011;32866;50.160;14.768;2022-08-19T09:52:20;11.70;;;10.50;;
46875;SDS011;32866;50.160;14.768;2022-08-19T09:54:45;12.65;;;9.68;;
46875;SDS011;32866;50.160;14.768;2022-08-19T09:57:11;11.50;;;10.25;;
46875;SDS011;32866;50.160;14.768;2022-08-19T09:59:36;12.23;;;10.77;;
46875;SDS011;32866;50.160;14.768;2022-08-19T10:02:03;12.60;;;11.30;;
46875;SDS011;32866;50.160;14.768;2022-08-19T10:04:29;10.90;;;9.73;;
46875;SDS011;32866;50.160;14.768;2022-08-19T10:07:29;11.93;;;10.73;;
46875;SDS011;32866;50.160;14.768;2022-08-19T10:09:55;11.63;;;10.43;;
46875;SDS011;32866;50.160;14.768;2022-08-19T10:12:21;12.05;;;10.75;;
46875;SDS011;32866;50.160;14.768;2022-08-19T10:14:47;12.25;;;10.98;;
46875;SDS011;32866;50.160;14.768;2022-08-19T10:17:13;12.73;;;10.70;;
46875;SDS011;32866;50.160;14.768;2022-08-19T10:19:39;13.70;;;9.40;;
46875;SDS011;32866;50.160;14.768;2022-08-19T10:22:05;12.32;;;10.27;;
46875;SDS011;32866;50.160;14.768;2022-08-19T10:24:32;11.88;;;10.48;;
46875;SDS011;32866;50.160;14.768;2022-08-19T10:26:59;12.48;;;11.18;;
46875;SDS011;32866;50.160;14.768;2022-08-19T10:29:27;12.38;;;11.02;;
46875;SDS011;32866;50.160;14.768;2022-08-19T10:31:53;12.35;;;11.05;;
46875;SDS011;32866;50.160;14.768;2022-08-19T10:34:18;13.00;;;11.25;;
46875;SDS011;32866;50.160;14.768;2022-08-19T10:36:44;15.05;;;12.43;;
46875;SDS011;32866;50.160;14.768;2022-08-19T10:39:10;17.17;;;12.50;;
46875;SDS011;32866;50.160;14.768;2022-08-19T10:41:38;12.85;;;11.38;;
46875;SDS011;32866;50.160;14.768;2022-08-19T10:44:05;12.88;;;10.00;;
46875;SDS011;32866;50.160;14.768;2022-08-19T10:46:33;14.77;;;10.85;;
46875;SDS011;32866;50.160;14.768;2022-08-19T10:49:03;13.55;;;10.32;;
46875;SDS011;32866;50.160;14.768;2022-08-19T10:51:30;13.98;;;11.65;;
46875;SDS011;32866;50.160;14.768;2022-08-19T10:54:15;15.30;;;10.65;;
46875;SDS011;32866;50.160;14.768;2022-08-19T10:56:41;12.23;;;10.93;;
46875;SDS011;32866;50.160;14.768;2022-08-19T10:59:17;13.75;;;11.35;;
46875;SDS011;32866;50.160;14.768;2022-08-19T11:01:52;14.25;;;10.23;;
46875;SDS011;32866;50.160;14.768;2022-08-19T11:04:18;14.45;;;10.93;;
46875;SDS011;32866;50.160;14.768;2022-08-19T11:06:45;13.52;;;10.48;;
46875;SDS011;32866;50.160;14.768;2022-08-19T11:09:12;10.80;;;9.70;;
46875;SDS011;32866;50.160;14.768;2022-08-19T11:11:42;13.13;;;11.73;;
46875;SDS011;32866;50.160;14.768;2022-08-19T11:14:08;13.10;;;11.07;;
46875;SDS011;32866;50.160;14.768;2022-08-19T11:16:36;12.50;;;11.00;;
46875;SDS011;32866;50.160;14.768;2022-08-19T11:19:04;19.73;;;11.43;;
46875;SDS011;32866;50.160;14.768;2022-08-19T11:21:40;12.32;;;11.02;;
46875;SDS011;32866;50.160;14.768;2022-08-19T11:24:09;13.10;;;11.27;;
46875;SDS011;32866;50.160;14.768;2022-08-19T11:26:44;13.60;;;12.17;;
46875;SDS011;32866;50.160;14.768;2022-08-19T11:29:10;13.10;;;11.70;;
46875;SDS011;32866;50.160;14.768;2022-08-19T11:31:39;13.65;;;12.25;;
46875;SDS011;32866;50.160;14.768;2022-08-19T11:34:08;13.40;;;11.27;;
46875;SDS011;32866;50.160;14.768;2022-08-19T11:36:37;13.70;;;11.10;;
46875;SDS011;32866;50.160;14.768;2022-08-19T11:39:05;13.05;;;10.88;;
46875;SDS011;32866;50.160;14.768;2022-08-19T11:41:32;12.68;;;11.35;;
46875;SDS011;32866;50.160;14.768;2022-08-19T11:43:58;11.98;;;10.75;;
46875;SDS011;32866;50.160;14.768;2022-08-19T11:46:24;12.15;;;10.32;;
46875;SDS011;32866;50.160;14.768;2022-08-19T11:48:50;14.07;;;11.73;;
46875;SDS011;32866;50.160;14.768;2022-08-19T11:51:17;12.15;;;10.50;;
46875;SDS011;32866;50.160;14.768;2022-08-19T11:53:46;11.77;;;10.57;;
46875;SDS011;32866;50.160;14.768;2022-08-19T11:56:12;12.05;;;10.57;;
46875;SDS011;32866;50.160;14.768;2022-08-19T11:58:38;13.10;;;10.57;;
46875;SDS011;32866;50.160;14.768;2022-08-19T12:01:13;11.40;;;10.30;;
46875;SDS011;32866;50.160;14.768;2022-08-19T12:03:41;12.30;;;9.98;;
46875;SDS011;32866;50.160;14.768;2022-08-19T12:06:09;13.68;;;11.13;;
46875;SDS011;32866;50.160;14.768;2022-08-19T12:08:38;14.02;;;11.27;;
46875;SDS011;32866;50.160;14.768;2022-08-19T12:11:04;12.55;;;11.18;;
46875;SDS011;32866;50.160;14.768;2022-08-19T12:13:32;13.25;;;11.65;;
46875;SDS011;32866;50.160;14.768;2022-08-19T12:15:59;15.73;;;11.45;;
46875;SDS011;32866;50.160;14.768;2022-08-19T12:18:24;12.02;;;10.30;;
46875;SDS011;32866;50.160;14.768;2022-08-19T12:20:50;11.27;;;10.13;;
46875;SDS011;32866;50.160;14.768;2022-08-19T12:23:17;13.02;;;11.75;;
46875;SDS011;32866;50.160;14.768;2022-08-19T12:25:44;11.68;;;10.48;;
46875;SDS011;32866;50.160;14.768;2022-08-19T12:28:14;14.40;;;11.00;;
46875;SDS011;32866;50.160;14.768;2022-08-19T12:33:09;12.80;;;11.40;;
46875;SDS011;32866;50.160;14.768;2022-08-19T12:35:34;12.80;;;10.70;;
46875;SDS011;32866;50.160;14.768;2022-08-19T12:38:00;12.30;;;11.05;;
46875;SDS011;32866;50.160;14.768;2022-08-19T12:40:26;14.80;;;11.38;;
46875;SDS011;32866;50.160;14.768;2022-08-19T12:42:52;14.27;;;11.05;;
46875;SDS011;32866;50.160;14.768;2022-08-19T12:45:18;13.05;;;10.90;;
46875;SDS011;32866;50.160;14.768;2022-08-19T12:47:44;13.93;;;11.13;;
46875;SDS011;32866;50.160;14.768;2022-08-19T12:50:11;10.85;;;9.75;;
46875;SDS011;32866;50.160;14.768;2022-08-19T12:52:36;11.35;;;10.02;;
46875;SDS011;32866;50.160;14.768;2022-08-19T12:55:02;12.20;;;10.65;;
46875;SDS011;32866;50.160;14.768;2022-08-19T12:57:29;13.35;;;10.18;;
46875;SDS011;32866;50.160;14.768;2022-08-19T12:59:58;12.43;;;9.38;;
46875;SDS011;32866;50.160;14.768;2022-08-19T13:02:24;11.15;;;9.45;;
46875;SDS011;32866;50.160;14.768;2022-08-19T13:04:50;11.60;;;10.50;;
46875;SDS011;32866;50.160;14.768;2022-08-19T13:07:15;11.20;;;9.70;;
46875;SDS011;32866;50.160;14.768;2022-08-19T13:09:41;12.80;;;9.77;;
46875;SDS011;32866;50.160;14.768;2022-08-19T13:12:07;11.18;;;9.82;;
46875;SDS011;32866;50.160;14.768;2022-08-19T13:14:37;11.00;;;8.88;;
46875;SDS011;32866;50.160;14.768;2022-08-19T13:17:04;13.27;;;10.63;;
46875;SDS011;32866;50.160;14.768;2022-08-19T13:19:31;11.90;;;10.65;;
46875;SDS011;32866;50.160;14.768;2022-08-19T13:21:56;11.60;;;10.40;;
46875;SDS011;32866;50.160;14.768;2022-08-19T13:24:22;11.15;;;10.00;;
46875;SDS011;32866;50.160;14.768;2022-08-19T13:26:48;16.45;;;9.82;;
46875;SDS011;32866;50.160;14.768;2022-08-19T13:29:13;10.45;;;9.05;;
46875;SDS011;32866;50.160;14.768;2022-08-19T13:31:57;12.00;;;10.77;;
46875;SDS011;32866;50.160;14.768;2022-08-19T13:34:41;11.43;;;10.23;;
46875;SDS011;32866;50.160;14.768;2022-08-19T13:37:07;11.77;;;10.65;;
46875;SDS011;32866;50.160;14.768;2022-08-19T13:39:32;13.00;;;10.32;;
46875;SDS011;32866;50.160;14.768;2022-08-19T13:41:59;10.30;;;9.30;;
46875;SDS011;32866;50.160;14.768;2022-08-19T13:44:25;12.15;;;10.95;;
46875;SDS011;32866;50.160;14.768;2022-08-19T13:46:54;11.57;;;10.38;;
46875;SDS011;32866;50.160;14.768;2022-08-19T13:49:20;10.38;;;9.30;;
46875;SDS011;32866;50.160;14.768;2022-08-19T13:51:47;11.85;;;10.75;;
46875;SDS011;32866;50.160;14.768;2022-08-19T13:54:13;11.02;;;9.43;;
46875;SDS011;32866;50.160;14.768;2022-08-19T13:56:43;10.25;;;9.23;;
46875;SDS011;32866;50.160;14.768;2022-08-19T13:59:10;13.38;;;10.50;;
46875;SDS011;32866;50.160;14.768;2022-08-19T14:01:36;13.05;;;9.15;;
46875;SDS011;32866;50.160;14.768;2022-08-19T14:04:02;11.13;;;9.82;;
46875;SDS011;32866;50.160;14.768;2022-08-19T14:06:28;10.65;;;9.60;;
46875;SDS011;32866;50.160;14.768;2022-08-19T14:08:54;11.02;;;8.88;;
46875;SDS011;32866;50.160;14.768;2022-08-19T14:11:19;10.95;;;9.88;;
46875;SDS011;32866;50.160;14.768;2022-08-19T14:13:44;10.55;;;9.55;;
46875;SDS011;32866;50.160;14.768;2022-08-19T14:16:10;11.45;;;10.25;;
46875;SDS011;32866;50.160;14.768;2022-08-19T14:18:38;9.88;;;8.80;;
46875;SDS011;32866;50.160;14.768;2022-08-19T14:21:04;9.18;;;8.27;;
46875;SDS011;32866;50.160;14.768;2022-08-19T14:23:31;9.23;;;8.30;;
46875;SDS011;32866;50.160;14.768;2022-08-19T14:26:04;8.65;;;7.80;;
46875;SDS011;32866;50.160;14.768;2022-08-19T14:28:36;10.25;;;9.25;;
46875;SDS011;32866;50.160;14.768;2022-08-19T14:31:02;11.30;;;9.05;;
46875;SDS011;32866;50.160;14.768;2022-08-19T14:33:27;10.80;;;9.45;;
46875;SDS011;32866;50.160;14.768;2022-08-19T14:35:52;10.32;;;9.30;;
46875;SDS011;32866;50.160;14.768;2022-08-19T14:38:18;9.57;;;8.57;;
46875;SDS011;32866;50.160;14.768;2022-08-19T14:40:44;9.02;;;8.13;;
46875;SDS011;32866;50.160;14.768;2022-08-19T14:43:09;9.50;;;8.38;;
46875;SDS011;32866;50.160;14.768;2022-08-19T14:45:36;10.55;;;8.63;;
46875;SDS011;32866;50.160;14.768;2022-08-19T14:48:05;10.98;;;9.25;;
46875;SDS011;32866;50.160;14.768;2022-08-19T14:50:32;9.73;;;8.63;;
46875;SDS011;32866;50.160;14.768;2022-08-19T14:53:02;10.40;;;8.57;;
46875;SDS011;32866;50.160;14.768;2022-08-19T14:55:31;9.63;;;8.63;;
46875;SDS011;32866;50.160;14.768;2022-08-19T14:57:57;12.15;;;8.18;;
46875;SDS011;32866;50.160;14.768;2022-08-19T15:00:23;9.15;;;8.10;;
46875;SDS011;32866;50.160;14.768;2022-08-19T15:02:49;10.02;;;8.68;;
46875;SDS011;32866;50.160;14.768;2022-08-19T15:05:15;13.18;;;8.73;;
46875;SDS011;32866;50.160;14.768;2022-08-19T15:07:41;13.77;;;8.52;;
46875;SDS011;32866;50.160;14.768;2022-08-19T15:10:08;9.82;;;8.80;;
46875;SDS011;32866;50.160;14.768;2022-08-19T15:12:35;11.93;;;8.25;;
46875;SDS011;32866;50.160;14.768;2022-08-19T15:15:03;10.05;;;9.00;;
46875;SDS011;32866;50.160;14.768;2022-08-19T15:17:29;11.32;;;8.40;;
46875;SDS011;32866;50.160;14.768;2022-08-19T15:19:55;9.65;;;7.53;;
46875;SDS011;32866;50.160;14.768;2022-08-19T15:22:21;9.25;;;8.27;;
46875;SDS011;32866;50.160;14.768;2022-08-19T15:24:46;8.80;;;7.35;;
46875;SDS011;32866;50.160;14.768;2022-08-19T15:27:12;9.23;;;8.30;;
46875;SDS011;32866;50.160;14.768;2022-08-19T15:29:38;11.23;;;8.48;;
46875;SDS011;32866;50.160;14.768;2022-08-19T15:32:05;11.25;;;9.70;;
46875;SDS011;32866;50.160;14.768;2022-08-19T15:34:31;10.68;;;7.25;;
46875;SDS011;32866;50.160;14.768;2022-08-19T15:36:57;11.45;;;8.75;;
46875;SDS011;32866;50.160;14.768;2022-08-19T15:39:23;11.38;;;8.25;;
46875;SDS011;32866;50.160;14.768;2022-08-19T15:41:49;14.80;;;8.07;;
46875;SDS011;32866;50.160;14.768;2022-08-19T15:44:16;9.77;;;8.77;;
46875;SDS011;32866;50.160;14.768;2022-08-19T15:46:44;9.68;;;7.72;;
46875;SDS011;32866;50.160;14.768;2022-08-19T15:49:12;10.75;;;9.25;;
46875;SDS011;32866;50.160;14.768;2022-08-19T15:51:39;9.30;;;8.30;;